createdAt,value
2023-05-21T00:01:08.034Z,18.20
2023-05-21T00:03:36.239Z,18.30
2023-05-21T00:06:04.035Z,18.10
2023-05-21T00:08:31.155Z,18.30
2023-05-21T00:10:58.062Z,18.40
2023-05-21T00:13:24.944Z,18.20
2023-05-21T00:15:51.850Z,18.10
2023-05-21T00:18:18.866Z,17.90
2023-05-21T00:20:45.812Z,18.00
2023-05-21T00:23:12.924Z,18.10
2023-05-21T00:25:39.701Z,18.10
2023-05-21T00:28:06.660Z,17.80
2023-05-21T00:30:33.450Z,18.10
2023-05-21T00:33:02.867Z,18.10
2023-05-21T00:35:30.122Z,18.00
2023-05-21T00:37:57.316Z,18.00
2023-05-21T00:40:24.414Z,17.60
2023-05-21T00:42:51.291Z,17.70
2023-05-21T00:45:18.208Z,17.40
2023-05-21T00:47:45.968Z,17.60
2023-05-21T00:50:14.944Z,17.40
2023-05-21T00:52:43.990Z,17.70
2023-05-21T00:55:10.962Z,17.40
2023-05-21T00:57:39.591Z,17.50
2023-05-21T01:00:09.012Z,17.20
2023-05-21T01:02:37.331Z,17.40
2023-05-21T01:05:06.681Z,17.30
2023-05-21T01:07:39.046Z,17.50
2023-05-21T01:10:08.500Z,17.50
2023-05-21T01:12:37.059Z,17.40
2023-05-21T01:15:04.990Z,17.30
2023-05-21T01:17:34.253Z,17.50
2023-05-21T01:20:01.889Z,17.20
2023-05-21T01:22:32.360Z,17.30
2023-05-21T01:25:02.733Z,17.50
2023-05-21T01:27:29.713Z,17.40
2023-05-21T01:29:57.141Z,17.60
2023-05-21T01:32:38.718Z,17.70
2023-05-21T01:35:11.216Z,17.80
2023-05-21T01:37:48.381Z,17.40
2023-05-21T01:40:22.623Z,17.50
2023-05-21T01:42:49.593Z,17.60
2023-05-21T01:45:17.654Z,17.50
2023-05-21T01:47:49.281Z,17.80
2023-05-21T01:50:18.153Z,17.50
2023-05-21T01:52:56.907Z,17.40
2023-05-21T01:55:24.741Z,17.50
2023-05-21T01:57:55.977Z,17.30
2023-05-21T02:00:24.599Z,17.30
2023-05-21T02:02:51.981Z,17.20
2023-05-21T02:05:18.865Z,17.40
2023-05-21T02:07:47.454Z,17.30
2023-05-21T02:10:14.291Z,17.20
2023-05-21T02:12:41.085Z,17.50
2023-05-21T02:15:08.074Z,17.20
2023-05-21T02:17:35.398Z,17.60
2023-05-21T02:20:11.239Z,17.40
2023-05-21T02:22:46.394Z,17.60
2023-05-21T02:25:15.884Z,17.30
2023-05-21T02:27:43.400Z,17.60
2023-05-21T02:30:12.197Z,17.30
2023-05-21T02:32:43.265Z,17.50
2023-05-21T02:35:12.277Z,17.60
2023-05-21T02:37:44.244Z,17.40
2023-05-21T02:40:12.247Z,17.30
2023-05-21T02:42:41.192Z,17.50
2023-05-21T02:45:12.413Z,17.30
2023-05-21T02:47:39.433Z,17.40
2023-05-21T02:50:07.798Z,17.40
2023-05-21T02:52:34.763Z,17.30
2023-05-21T02:55:01.546Z,17.40
2023-05-21T02:57:28.312Z,17.50
2023-05-21T02:59:55.107Z,17.60
2023-05-21T03:02:22.018Z,17.40
2023-05-21T03:04:48.939Z,17.30
2023-05-21T03:07:19.038Z,17.50
2023-05-21T03:09:46.124Z,17.40
2023-05-21T03:12:13.426Z,17.30
2023-05-21T03:14:40.211Z,17.20
2023-05-21T03:17:07.866Z,17.30
2023-05-21T03:19:36.284Z,17.20
2023-05-21T03:22:03.754Z,17.10
2023-05-21T03:24:31.818Z,16.90
2023-05-21T03:26:59.337Z,17.10
2023-05-21T03:29:26.189Z,17.20
2023-05-21T03:31:56.828Z,17.00
2023-05-21T03:34:24.339Z,17.20
2023-05-21T03:36:51.121Z,17.00
2023-05-21T03:39:18.380Z,17.00
2023-05-21T03:41:45.389Z,16.90
2023-05-21T03:44:12.216Z,17.10
2023-05-21T03:46:39.171Z,16.70
2023-05-21T03:49:06.202Z,16.70
2023-05-21T03:51:33.105Z,16.90
2023-05-21T03:54:01.341Z,16.90
2023-05-21T03:56:28.259Z,17.20
2023-05-21T03:58:55.092Z,16.90
2023-05-21T04:01:22.043Z,16.80
2023-05-21T04:03:48.943Z,17.20
2023-05-21T04:06:15.984Z,17.00
2023-05-21T04:08:43.089Z,16.80
2023-05-21T04:11:10.984Z,16.90
2023-05-21T04:13:38.806Z,16.60
2023-05-21T04:16:09.020Z,16.70
2023-05-21T04:18:35.991Z,16.90
2023-05-21T04:21:02.849Z,16.70
2023-05-21T04:23:29.691Z,16.80
2023-05-21T04:25:56.507Z,16.60
2023-05-21T04:28:24.213Z,16.80
2023-05-21T04:30:51.165Z,16.80
2023-05-21T04:33:18.519Z,17.00
2023-05-21T04:35:50.054Z,16.80
2023-05-21T04:38:19.837Z,16.80
2023-05-21T04:40:53.517Z,16.80
2023-05-21T04:43:26.114Z,17.00
2023-05-21T04:45:55.003Z,16.90
2023-05-21T04:48:27.159Z,17.10
2023-05-21T04:50:56.042Z,17.10
2023-05-21T04:53:26.048Z,17.30
2023-05-21T04:55:53.103Z,17.20
2023-05-21T04:58:19.943Z,17.00
2023-05-21T05:00:47.115Z,17.20
2023-05-21T05:03:14.600Z,17.20
2023-05-21T05:05:41.960Z,17.30
2023-05-21T05:08:08.812Z,17.40
2023-05-21T05:10:36.234Z,17.50
2023-05-21T05:13:03.151Z,17.10
2023-05-21T05:15:29.952Z,17.20
2023-05-21T05:17:56.838Z,17.30
2023-05-21T05:20:23.638Z,17.40
2023-05-21T05:22:50.505Z,17.30
2023-05-21T05:25:17.374Z,17.50
2023-05-21T05:27:44.268Z,17.30
2023-05-21T05:30:11.529Z,17.50
2023-05-21T05:32:38.453Z,17.30
2023-05-21T05:35:06.024Z,17.50
2023-05-21T05:37:33.652Z,17.50
2023-05-21T05:40:00.569Z,17.40
2023-05-21T05:42:27.350Z,17.30
2023-05-21T05:44:54.099Z,17.40
2023-05-21T05:47:21.857Z,17.40
2023-05-21T05:49:48.732Z,17.30
2023-05-21T05:52:15.937Z,17.70
2023-05-21T05:54:42.756Z,17.50
2023-05-21T05:57:09.515Z,17.50
2023-05-21T05:59:36.395Z,17.60
2023-05-21T06:02:03.359Z,17.40
2023-05-21T06:04:30.294Z,17.50
2023-05-21T06:07:00.556Z,17.40
2023-05-21T06:09:27.417Z,17.20
2023-05-21T06:11:54.402Z,17.50
2023-05-21T06:14:21.250Z,17.20
2023-05-21T06:16:48.014Z,17.00
2023-05-21T06:19:14.954Z,17.20
2023-05-21T06:21:41.954Z,17.10
2023-05-21T06:24:08.782Z,17.30
2023-05-21T06:26:35.847Z,17.30
2023-05-21T06:29:03.818Z,17.40
2023-05-21T06:31:33.104Z,17.30
2023-05-21T06:34:01.161Z,17.50
2023-05-21T06:36:30.061Z,17.60
2023-05-21T06:38:57.278Z,17.50
2023-05-21T06:41:24.478Z,17.60
2023-05-21T06:43:51.447Z,17.60
2023-05-21T06:46:18.348Z,17.50
2023-05-21T06:48:46.305Z,17.80
2023-05-21T06:51:13.416Z,17.80
2023-05-21T06:53:40.290Z,17.80
2023-05-21T06:56:07.410Z,17.90
2023-05-21T06:58:34.236Z,17.90
2023-05-21T07:01:01.776Z,17.70
2023-05-21T07:03:28.896Z,18.00
2023-05-21T07:05:57.332Z,18.00
2023-05-21T07:08:24.450Z,17.90
2023-05-21T07:10:51.401Z,18.10
2023-05-21T07:13:18.193Z,18.00
2023-05-21T07:15:45.061Z,18.00
2023-05-21T07:18:12.187Z,18.00
2023-05-21T07:20:39.076Z,18.10
2023-05-21T07:23:06.171Z,17.90
2023-05-21T07:25:32.943Z,18.10
2023-05-21T07:27:59.738Z,17.90
2023-05-21T07:30:26.580Z,18.10
2023-05-21T07:32:53.436Z,18.30
2023-05-21T07:35:20.508Z,18.20
2023-05-21T07:37:48.070Z,18.40
2023-05-21T07:40:14.986Z,18.30
2023-05-21T07:42:42.054Z,18.50
2023-05-21T07:45:09.326Z,18.30
2023-05-21T07:47:36.250Z,18.20
2023-05-21T07:50:03.242Z,18.40
2023-05-21T07:52:30.144Z,18.50
2023-05-21T07:54:57.000Z,18.30
2023-05-21T07:57:23.869Z,18.60
2023-05-21T07:59:51.151Z,18.70
2023-05-21T08:02:17.965Z,18.60
2023-05-21T08:04:44.769Z,18.80
2023-05-21T08:07:12.956Z,18.60
2023-05-21T08:09:39.769Z,18.70
2023-05-21T08:12:07.302Z,18.70
2023-05-21T08:14:34.317Z,18.90
2023-05-21T08:17:01.172Z,19.00
2023-05-21T08:19:28.083Z,19.30
2023-05-21T08:21:54.944Z,19.30
2023-05-21T08:24:21.688Z,19.30
2023-05-21T08:26:50.570Z,19.20
2023-05-21T08:29:17.437Z,19.40
2023-05-21T08:31:44.276Z,19.60
2023-05-21T08:34:11.234Z,19.50
2023-05-21T08:36:38.340Z,19.40
2023-05-21T08:39:05.168Z,19.60
2023-05-21T08:41:34.652Z,19.60
2023-05-21T08:44:02.699Z,19.70
2023-05-21T08:46:33.141Z,19.80
2023-05-21T08:49:02.910Z,19.80
2023-05-21T08:51:31.428Z,19.70
2023-05-21T08:53:59.851Z,19.50
2023-05-21T08:56:27.294Z,19.50
2023-05-21T08:58:54.184Z,19.50
2023-05-21T09:01:24.168Z,19.50
2023-05-21T09:04:05.000Z,19.30
2023-05-21T09:06:41.305Z,19.40
2023-05-21T09:09:18.269Z,19.50
2023-05-21T09:11:46.450Z,19.60
2023-05-21T09:14:14.583Z,19.90
2023-05-21T09:16:41.535Z,19.90
2023-05-21T09:19:08.476Z,19.80
2023-05-21T09:21:35.274Z,19.90
2023-05-21T09:24:02.245Z,19.50
2023-05-21T09:26:29.090Z,20.00
2023-05-21T09:29:00.459Z,20.10
2023-05-21T09:31:27.781Z,20.10
2023-05-21T09:33:55.741Z,20.20
2023-05-21T09:36:23.297Z,20.20
2023-05-21T09:38:51.918Z,20.30
2023-05-21T09:41:21.917Z,20.40
2023-05-21T09:43:49.551Z,20.40
2023-05-21T09:46:20.659Z,20.40
2023-05-21T09:48:47.483Z,20.30
2023-05-21T09:51:16.773Z,20.60
2023-05-21T09:54:00.009Z,20.70
2023-05-21T09:56:31.999Z,20.80
2023-05-21T09:59:01.410Z,20.70
2023-05-21T10:01:30.726Z,20.70
2023-05-21T10:03:58.936Z,20.70
2023-05-21T10:06:31.299Z,20.70
2023-05-21T10:09:04.725Z,20.60
2023-05-21T10:11:33.768Z,20.60
2023-05-21T10:14:09.371Z,20.80
2023-05-21T10:16:37.152Z,20.80
2023-05-21T10:19:05.316Z,20.80
2023-05-21T10:21:33.558Z,20.80
2023-05-21T10:24:03.005Z,20.90
2023-05-21T10:26:30.733Z,21.00
2023-05-21T10:29:00.277Z,21.10
2023-05-21T10:31:28.615Z,21.20
2023-05-21T10:33:56.163Z,21.30
2023-05-21T10:36:25.721Z,21.30
2023-05-21T10:38:53.380Z,21.40
2023-05-21T10:41:21.942Z,21.50
2023-05-21T10:44:08.999Z,21.50
2023-05-21T10:46:44.680Z,21.60
2023-05-21T10:49:42.022Z,21.70
2023-05-21T10:52:30.486Z,21.70
2023-05-21T10:55:13.926Z,21.80
2023-05-21T10:58:12.127Z,21.80
2023-05-21T11:00:39.317Z,21.90
2023-05-21T11:03:07.609Z,21.90
2023-05-21T11:05:42.156Z,21.80
2023-05-21T11:08:23.298Z,21.90
2023-05-21T11:10:55.024Z,21.90
2023-05-21T11:13:22.333Z,21.90
2023-05-21T11:15:58.216Z,22.00
2023-05-21T11:18:31.115Z,22.00
2023-05-21T11:21:08.773Z,22.00
2023-05-21T11:23:51.342Z,22.10
2023-05-21T11:26:23.196Z,22.10
2023-05-21T11:29:05.901Z,22.10
2023-05-21T11:31:38.778Z,22.20
2023-05-21T11:34:28.702Z,22.10
2023-05-21T11:37:23.127Z,22.20
2023-05-21T11:39:51.188Z,22.30
2023-05-21T11:42:31.838Z,22.20
2023-05-21T11:45:00.893Z,22.30
2023-05-21T11:47:29.410Z,22.30
2023-05-21T11:49:58.092Z,22.30
2023-05-21T11:52:25.468Z,22.30
2023-05-21T11:54:57.922Z,22.40
2023-05-21T11:57:31.298Z,22.60
2023-05-21T12:00:00.007Z,22.50
2023-05-21T12:02:32.658Z,22.40
2023-05-21T12:05:00.549Z,22.50
2023-05-21T12:07:31.943Z,22.60
2023-05-21T12:09:58.995Z,22.70
2023-05-21T12:12:32.816Z,22.70
2023-05-21T12:15:03.116Z,22.80
2023-05-21T12:17:31.756Z,22.80
2023-05-21T12:19:58.880Z,22.90
2023-05-21T12:22:27.929Z,22.70
2023-05-21T12:24:54.807Z,22.60
2023-05-21T12:27:22.359Z,22.50
2023-05-21T12:29:51.928Z,22.60
2023-05-21T12:32:21.011Z,22.70
2023-05-21T12:34:51.675Z,22.70
2023-05-21T12:37:23.361Z,22.80
2023-05-21T12:39:52.110Z,22.90
2023-05-21T12:42:37.400Z,23.00
2023-05-21T12:45:08.593Z,23.10
2023-05-21T12:47:35.980Z,23.20
2023-05-21T12:50:04.785Z,23.30
2023-05-21T12:52:31.670Z,23.50
2023-05-21T12:54:59.338Z,23.60
2023-05-21T12:57:37.154Z,23.60
2023-05-21T13:00:06.903Z,23.60
2023-05-21T13:02:35.966Z,23.80
2023-05-21T13:05:10.664Z,23.90
2023-05-21T13:07:39.297Z,23.90
2023-05-21T13:10:07.242Z,23.90
2023-05-21T13:12:34.763Z,23.90
2023-05-21T13:15:04.041Z,24.00
2023-05-21T13:17:31.069Z,24.00
2023-05-21T13:20:12.359Z,23.90
2023-05-21T13:22:43.645Z,23.80
2023-05-21T13:25:11.727Z,23.90
2023-05-21T13:27:39.590Z,24.00
2023-05-21T13:30:07.733Z,24.20
2023-05-21T13:32:34.965Z,24.20
2023-05-21T13:35:01.949Z,24.20
2023-05-21T13:37:28.748Z,24.20
2023-05-21T13:39:55.586Z,24.30
2023-05-21T13:42:22.446Z,24.40
2023-05-21T13:44:49.874Z,24.50
2023-05-21T13:47:16.899Z,24.50
2023-05-21T13:49:43.717Z,24.50
2023-05-21T13:52:10.642Z,24.50
2023-05-21T13:54:37.560Z,24.50
2023-05-21T13:57:04.472Z,24.50
2023-05-21T13:59:33.420Z,24.60
2023-05-21T14:02:00.920Z,24.70
2023-05-21T14:04:28.048Z,24.80
2023-05-21T14:06:54.999Z,24.80
2023-05-21T14:09:23.403Z,24.80
2023-05-21T14:11:50.889Z,24.90
2023-05-21T14:14:19.123Z,25.00
2023-05-21T14:16:49.675Z,25.00
2023-05-21T14:19:16.731Z,25.00
2023-05-21T14:21:43.899Z,25.10
2023-05-21T14:24:10.729Z,25.10
2023-05-21T14:26:40.419Z,25.10
2023-05-21T14:29:07.580Z,25.10
2023-05-21T14:31:34.460Z,25.10
2023-05-21T14:34:02.961Z,25.10
2023-05-21T14:36:30.235Z,25.20
2023-05-21T14:38:57.109Z,25.20
2023-05-21T14:41:27.770Z,25.10
2023-05-21T14:43:54.902Z,25.10
2023-05-21T14:46:22.212Z,25.10
2023-05-21T14:48:49.180Z,25.10
2023-05-21T14:51:16.146Z,25.10
2023-05-21T14:53:43.088Z,25.20
2023-05-21T14:56:10.124Z,25.30
2023-05-21T14:58:36.913Z,25.30
2023-05-21T15:01:06.735Z,25.20
2023-05-21T15:03:34.077Z,25.10
2023-05-21T15:06:01.103Z,25.30
2023-05-21T15:08:27.898Z,25.30
2023-05-21T15:10:54.846Z,25.50
2023-05-21T15:13:21.761Z,25.50
2023-05-21T15:15:49.404Z,25.60
2023-05-21T15:18:16.357Z,25.70
2023-05-21T15:20:43.211Z,25.60
2023-05-21T15:23:16.981Z,25.50
2023-05-21T15:25:45.342Z,25.60
2023-05-21T15:28:12.585Z,25.50
2023-05-21T15:30:39.907Z,25.50
2023-05-21T15:33:06.726Z,25.40
2023-05-21T15:35:34.955Z,25.50
2023-05-21T15:38:02.130Z,25.50
2023-05-21T15:40:28.944Z,25.50
2023-05-21T15:42:55.803Z,25.60
2023-05-21T15:45:22.634Z,25.70
2023-05-21T15:47:49.522Z,25.80
2023-05-21T15:50:16.449Z,25.80
2023-05-21T15:52:43.319Z,25.90
2023-05-21T15:55:10.253Z,25.90
2023-05-21T15:57:37.087Z,25.90
2023-05-21T16:00:04.991Z,25.90
2023-05-21T16:02:32.012Z,26.00
2023-05-21T16:04:58.983Z,26.00
2023-05-21T16:07:25.867Z,26.00
2023-05-21T16:09:52.720Z,25.90
2023-05-21T16:12:19.564Z,26.10
2023-05-21T16:14:49.962Z,26.20
2023-05-21T16:17:17.258Z,26.30
2023-05-21T16:19:44.108Z,26.30
2023-05-21T16:22:11.119Z,26.30
2023-05-21T16:24:38.017Z,26.30
2023-05-21T16:27:05.095Z,26.40
2023-05-21T16:29:32.160Z,26.20
2023-05-21T16:31:59.066Z,26.10
2023-05-21T16:34:25.989Z,26.10
2023-05-21T16:36:52.911Z,25.90
2023-05-21T16:39:19.829Z,25.80
2023-05-21T16:41:46.639Z,25.80
2023-05-21T16:44:14.056Z,25.80
2023-05-21T16:46:40.972Z,25.70
2023-05-21T16:49:07.856Z,25.70
2023-05-21T16:51:34.797Z,25.70
2023-05-21T16:54:04.181Z,25.70
2023-05-21T16:56:31.514Z,25.70
2023-05-21T16:58:58.360Z,25.60
2023-05-21T17:01:25.507Z,25.50
2023-05-21T17:03:52.979Z,25.40
2023-05-21T17:06:20.076Z,25.40
2023-05-21T17:08:47.282Z,25.30
2023-05-21T17:11:14.139Z,25.20
2023-05-21T17:13:41.109Z,25.10
2023-05-21T17:16:08.038Z,25.10
2023-05-21T17:18:34.944Z,25.10
2023-05-21T17:21:01.789Z,25.10
2023-05-21T17:23:28.633Z,25.00
2023-05-21T17:25:55.499Z,25.00
2023-05-21T17:28:22.340Z,24.90
2023-05-21T17:30:49.741Z,24.90
2023-05-21T17:33:16.945Z,24.90
2023-05-21T17:35:44.172Z,24.90
2023-05-21T17:38:11.047Z,24.90
2023-05-21T17:40:37.897Z,24.90
2023-05-21T17:43:05.243Z,24.90
2023-05-21T17:45:32.301Z,24.90
2023-05-21T17:48:00.470Z,24.90
2023-05-21T17:50:27.826Z,24.80
2023-05-21T17:52:54.750Z,24.90
2023-05-21T17:55:21.651Z,24.80
2023-05-21T17:57:48.526Z,24.90
2023-05-21T18:00:15.487Z,24.80
2023-05-21T18:02:42.536Z,24.90
2023-05-21T18:05:09.433Z,24.90
2023-05-21T18:07:37.207Z,24.90
2023-05-21T18:10:04.350Z,24.90
2023-05-21T18:12:31.197Z,24.90
2023-05-21T18:14:58.061Z,24.80
2023-05-21T18:17:24.952Z,24.80
2023-05-21T18:19:51.819Z,24.80
2023-05-21T18:22:18.639Z,24.80
2023-05-21T18:24:46.247Z,24.80
2023-05-21T18:27:13.539Z,24.80
2023-05-21T18:29:40.489Z,24.80
2023-05-21T18:32:07.898Z,24.80
2023-05-21T18:34:34.827Z,24.80
2023-05-21T18:37:01.839Z,24.80
2023-05-21T18:39:28.664Z,24.70
2023-05-21T18:42:11.510Z,24.80
2023-05-21T18:44:40.107Z,24.80
2023-05-21T18:47:07.734Z,24.80
2023-05-21T18:49:36.131Z,24.90
2023-05-21T18:52:04.110Z,24.90
2023-05-21T18:54:31.153Z,25.00
2023-05-21T18:57:00.423Z,25.10
2023-05-21T18:59:28.649Z,25.20
2023-05-21T19:01:55.721Z,25.30
2023-05-21T19:04:22.732Z,25.30
2023-05-21T19:06:49.684Z,25.20
2023-05-21T19:09:19.103Z,25.20
2023-05-21T19:11:46.051Z,25.10
2023-05-21T19:14:13.030Z,25.10
2023-05-21T19:16:39.807Z,25.10
2023-05-21T19:19:06.757Z,25.10
2023-05-21T19:21:33.853Z,25.10
2023-05-21T19:24:01.270Z,25.10
2023-05-21T19:26:28.167Z,25.10
2023-05-21T19:28:55.479Z,25.10
2023-05-21T19:31:23.354Z,25.20
2023-05-21T19:33:50.619Z,25.20
2023-05-21T19:36:18.472Z,25.20
2023-05-21T19:38:49.447Z,25.20
2023-05-21T19:41:17.064Z,25.10
2023-05-21T19:43:44.679Z,25.00
2023-05-21T19:46:11.687Z,24.80
2023-05-21T19:48:38.706Z,24.60
2023-05-21T19:51:05.920Z,24.60
2023-05-21T19:53:32.833Z,24.60
2023-05-21T19:56:00.033Z,24.50
2023-05-21T19:58:29.663Z,24.50
2023-05-21T20:00:59.241Z,24.40
2023-05-21T20:03:26.844Z,24.30
2023-05-21T20:05:54.537Z,24.30
2023-05-21T20:08:21.711Z,24.10
2023-05-21T20:10:51.345Z,24.00
2023-05-21T20:13:19.275Z,23.80
2023-05-21T20:15:48.004Z,23.70
2023-05-21T20:18:15.552Z,23.50
2023-05-21T20:20:42.989Z,23.60
2023-05-21T20:23:09.867Z,23.60
2023-05-21T20:25:36.875Z,23.60
2023-05-21T20:28:05.297Z,23.50
2023-05-21T20:30:34.238Z,23.40
2023-05-21T20:33:02.461Z,23.20
2023-05-21T20:35:29.418Z,23.10
2023-05-21T20:37:56.713Z,23.00
2023-05-21T20:40:23.626Z,23.00
2023-05-21T20:42:53.593Z,22.90
2023-05-21T20:45:21.142Z,22.80
2023-05-21T20:47:49.702Z,22.70
2023-05-21T20:50:17.827Z,22.60
2023-05-21T20:52:47.083Z,22.60
2023-05-21T20:55:14.767Z,22.60
2023-05-21T20:57:42.167Z,22.50
2023-05-21T21:00:11.640Z,22.50
2023-05-21T21:02:38.873Z,22.50
2023-05-21T21:05:06.470Z,22.50
2023-05-21T21:07:34.325Z,22.40
2023-05-21T21:10:01.488Z,22.40
2023-05-21T21:12:28.609Z,22.50
2023-05-21T21:14:55.786Z,22.50
2023-05-21T21:17:23.136Z,22.60
2023-05-21T21:19:50.177Z,22.60
2023-05-21T21:22:18.353Z,22.50
2023-05-21T21:24:45.640Z,22.30
2023-05-21T21:27:12.507Z,22.10
2023-05-21T21:29:39.387Z,22.10
2023-05-21T21:32:06.691Z,22.10
2023-05-21T21:34:33.464Z,22.10
2023-05-21T21:37:00.301Z,22.00
2023-05-21T21:39:27.144Z,22.00
2023-05-21T21:41:54.180Z,22.10
2023-05-21T21:44:21.294Z,22.10
2023-05-21T21:46:48.318Z,22.00
2023-05-21T21:49:17.244Z,22.10
2023-05-21T21:51:44.661Z,22.10
2023-05-21T21:54:11.942Z,22.10
2023-05-21T21:56:38.782Z,22.10
2023-05-21T21:59:05.728Z,22.20
2023-05-21T22:01:32.822Z,22.10
2023-05-21T22:03:59.714Z,22.00
2023-05-21T22:06:27.672Z,22.00
2023-05-21T22:08:54.990Z,22.00
2023-05-21T22:11:22.011Z,22.10
2023-05-21T22:13:48.984Z,22.20
2023-05-21T22:16:16.110Z,22.20
2023-05-21T22:18:43.034Z,22.20
2023-05-21T22:21:10.983Z,22.20
2023-05-21T22:23:38.699Z,22.20
2023-05-21T22:26:08.941Z,22.20
2023-05-21T22:28:35.953Z,22.20
2023-05-21T22:31:03.206Z,22.20
2023-05-21T22:33:30.246Z,22.10
2023-05-21T22:35:57.193Z,22.10
2023-05-21T22:38:24.539Z,22.00
2023-05-21T22:40:51.497Z,22.00
2023-05-21T22:43:18.346Z,22.00
2023-05-21T22:45:45.186Z,22.00
2023-05-21T22:48:12.117Z,22.00
2023-05-21T22:50:39.294Z,22.00
2023-05-21T22:53:06.889Z,21.90
2023-05-21T22:55:33.755Z,21.90
2023-05-21T22:58:00.748Z,21.80
2023-05-21T23:00:27.549Z,21.80
2023-05-21T23:02:54.970Z,21.80
2023-05-21T23:05:22.364Z,21.80
2023-05-21T23:07:49.663Z,21.80
2023-05-21T23:10:16.614Z,21.80
2023-05-21T23:12:43.564Z,21.80
2023-05-21T23:15:10.871Z,21.80
2023-05-21T23:17:38.448Z,21.80
2023-05-21T23:20:07.180Z,21.80
2023-05-21T23:22:34.782Z,21.80
2023-05-21T23:25:01.738Z,21.80
2023-05-21T23:27:29.262Z,21.70
2023-05-21T23:29:56.422Z,21.70
2023-05-21T23:32:23.625Z,21.60
2023-05-21T23:34:50.825Z,21.60
2023-05-21T23:37:17.829Z,21.50
2023-05-21T23:39:48.187Z,21.50
2023-05-21T23:42:18.381Z,21.60
2023-05-21T23:44:45.414Z,21.50
2023-05-21T23:47:12.237Z,21.50
2023-05-21T23:49:39.686Z,21.60
2023-05-21T23:52:07.110Z,21.60
2023-05-21T23:54:34.065Z,21.50
2023-05-21T23:57:02.040Z,21.60
2023-05-21T23:59:29.187Z,21.50
